sensor_id;sensor_type;location;lat;lon;timestamp;pressure;altitude;pressure_sealevel;temperature;humidity
12203;BME280;6164;42.178;24.622;2023-05-21T00:00:14;99446.47;;;16.51;100.00
12203;BME280;6164;42.178;24.622;2023-05-21T00:02:42;99450.53;;;16.41;100.00
12203;BME280;6164;42.178;24.622;2023-05-21T00:05:09;99438.47;;;16.38;100.00
12203;BME280;6164;42.178;24.622;2023-05-21T00:07:38;99428.44;;;16.40;100.00
12203;BME280;6164;42.178;24.622;2023-05-21T00:10:06;99431.72;;;16.49;100.00
12203;BME280;6164;42.178;24.622;2023-05-21T00:12:33;99429.81;;;16.56;100.00
12203;BME280;6164;42.178;24.622;2023-05-21T00:15:00;99421.25;;;16.54;100.00
12203;BME280;6164;42.178;24.622;2023-05-21T00:17:27;99421.84;;;16.49;100.00
12203;BME280;6164;42.178;24.622;2023-05-21T00:19:55;99418.00;;;16.45;100.00
12203;BME280;6164;42.178;24.622;2023-05-21T00:22:22;99410.81;;;16.33;100.00
12203;BME280;6164;42.178;24.622;2023-05-21T00:24:48;99415.91;;;16.41;100.00
12203;BME280;6164;42.178;24.622;2023-05-21T00:27:15;99409.59;;;16.35;100.00
12203;BME280;6164;42.178;24.622;2023-05-21T00:29:42;99414.06;;;16.41;100.00
12203;BME280;6164;42.178;24.622;2023-05-21T00:32:09;99407.34;;;16.45;100.00
12203;BME280;6164;42.178;24.622;2023-05-21T00:34:35;99407.34;;;16.45;100.00
12203;BME280;6164;42.178;24.622;2023-05-21T00:37:04;99402.63;;;16.47;100.00
12203;BME280;6164;42.178;24.622;2023-05-21T00:39:30;99386.81;;;16.39;100.00
12203;BME280;6164;42.178;24.622;2023-05-21T00:41:57;99400.13;;;16.52;100.00
12203;BME280;6164;42.178;24.622;2023-05-21T00:44:24;99399.53;;;16.50;100.00
12203;BME280;6164;42.178;24.622;2023-05-21T00:46:51;99394.78;;;16.52;100.00
12203;BME280;6164;42.178;24.622;2023-05-21T00:49:18;99399.09;;;16.53;100.00
12203;BME280;6164;42.178;24.622;2023-05-21T00:51:46;99397.44;;;16.52;100.00
12203;BME280;6164;42.178;24.622;2023-05-21T00:54:15;99397.28;;;16.47;100.00
12203;BME280;6164;42.178;24.622;2023-05-21T00:56:41;99398.09;;;16.41;100.00
12203;BME280;6164;42.178;24.622;2023-05-21T00:59:08;99398.72;;;16.37;100.00
12203;BME280;6164;42.178;24.622;2023-05-21T01:01:35;99398.94;;;16.35;100.00
12203;BME280;6164;42.178;24.622;2023-05-21T01:04:03;99389.91;;;16.30;100.00
12203;BME280;6164;42.178;24.622;2023-05-21T01:06:30;99405.28;;;16.34;100.00
12203;BME280;6164;42.178;24.622;2023-05-21T01:08:59;99403.44;;;16.28;100.00
12203;BME280;6164;42.178;24.622;2023-05-21T01:11:36;99400.41;;;16.12;100.00
12203;BME280;6164;42.178;24.622;2023-05-21T01:14:04;99398.19;;;15.96;100.00
12203;BME280;6164;42.178;24.622;2023-05-21T01:16:34;99395.34;;;15.97;100.00
12203;BME280;6164;42.178;24.622;2023-05-21T01:19:03;99398.00;;;15.84;100.00
12203;BME280;6164;42.178;24.622;2023-05-21T01:21:32;99406.22;;;15.82;100.00
12203;BME280;6164;42.178;24.622;2023-05-21T01:24:03;99399.22;;;15.75;100.00
12203;BME280;6164;42.178;24.622;2023-05-21T01:26:32;99397.81;;;15.72;100.00
12203;BME280;6164;42.178;24.622;2023-05-21T01:29:03;99393.72;;;15.83;100.00
12203;BME280;6164;42.178;24.622;2023-05-21T01:31:34;99387.78;;;15.88;100.00
12203;BME280;6164;42.178;24.622;2023-05-21T01:34:04;99389.19;;;15.90;100.00
12203;BME280;6164;42.178;24.622;2023-05-21T01:36:37;99385.72;;;15.96;100.00
12203;BME280;6164;42.178;24.622;2023-05-21T01:39:10;99376.72;;;15.91;100.00
12203;BME280;6164;42.178;24.622;2023-05-21T01:41:42;99385.09;;;16.01;100.00
12203;BME280;6164;42.178;24.622;2023-05-21T01:44:10;99373.16;;;16.10;100.00
12203;BME280;6164;42.178;24.622;2023-05-21T01:46:38;99370.31;;;16.05;100.00
12203;BME280;6164;42.178;24.622;2023-05-21T01:49:06;99373.59;;;16.07;100.00
12203;BME280;6164;42.178;24.622;2023-05-21T01:51:34;99368.06;;;16.02;100.00
12203;BME280;6164;42.178;24.622;2023-05-21T01:54:01;99368.09;;;15.95;100.00
12203;BME280;6164;42.178;24.622;2023-05-21T01:56:30;99349.69;;;15.87;100.00
12203;BME280;6164;42.178;24.622;2023-05-21T01:58:58;99372.38;;;16.09;100.00
12203;BME280;6164;42.178;24.622;2023-05-21T02:01:25;99368.03;;;16.15;100.00
12203;BME280;6164;42.178;24.622;2023-05-21T02:03:54;99368.66;;;16.17;100.00
12203;BME280;6164;42.178;24.622;2023-05-21T02:06:22;99365.97;;;16.23;100.00
12203;BME280;6164;42.178;24.622;2023-05-21T02:08:49;99365.34;;;16.28;100.00
12203;BME280;6164;42.178;24.622;2023-05-21T02:11:16;99360.22;;;16.26;100.00
12203;BME280;6164;42.178;24.622;2023-05-21T02:13:44;99357.56;;;16.20;100.00
12203;BME280;6164;42.178;24.622;2023-05-21T02:16:11;99363.53;;;16.22;100.00
12203;BME280;6164;42.178;24.622;2023-05-21T02:18:39;99356.56;;;16.21;100.00
12203;BME280;6164;42.178;24.622;2023-05-21T02:21:06;99370.13;;;16.13;100.00
12203;BME280;6164;42.178;24.622;2023-05-21T02:23:33;99361.09;;;16.07;100.00
12203;BME280;6164;42.178;24.622;2023-05-21T02:26:00;99362.97;;;16.00;100.00
12203;BME280;6164;42.178;24.622;2023-05-21T02:28:27;99351.09;;;15.96;100.00
12203;BME280;6164;42.178;24.622;2023-05-21T02:30:56;99353.75;;;16.03;100.00
12203;BME280;6164;42.178;24.622;2023-05-21T02:33:22;99359.66;;;16.05;100.00
12203;BME280;6164;42.178;24.622;2023-05-21T02:35:49;99361.53;;;15.98;100.00
12203;BME280;6164;42.178;24.622;2023-05-21T02:38:16;99361.59;;;15.78;100.00
12203;BME280;6164;42.178;24.622;2023-05-21T02:40:43;99360.75;;;15.77;100.00
12203;BME280;6164;42.178;24.622;2023-05-21T02:43:10;99357.47;;;15.82;100.00
12203;BME280;6164;42.178;24.622;2023-05-21T02:45:37;99360.13;;;15.82;100.00
12203;BME280;6164;42.178;24.622;2023-05-21T02:48:05;99365.25;;;15.70;100.00
12203;BME280;6164;42.178;24.622;2023-05-21T02:50:32;99373.25;;;15.77;100.00
12203;BME280;6164;42.178;24.622;2023-05-21T02:52:58;99379.19;;;15.79;100.00
12203;BME280;6164;42.178;24.622;2023-05-21T02:55:25;99365.25;;;15.77;100.00
12203;BME280;6164;42.178;24.622;2023-05-21T02:57:52;99374.50;;;15.68;100.00
12203;BME280;6164;42.178;24.622;2023-05-21T03:00:19;99377.56;;;15.71;100.00
12203;BME280;6164;42.178;24.622;2023-05-21T03:02:45;99378.16;;;15.73;100.00
12203;BME280;6164;42.178;24.622;2023-05-21T03:05:13;99373.25;;;15.64;100.00
12203;BME280;6164;42.178;24.622;2023-05-21T03:07:40;99373.25;;;15.77;100.00
12203;BME280;6164;42.178;24.622;2023-05-21T03:10:08;99374.88;;;15.85;100.00
12203;BME280;6164;42.178;24.622;2023-05-21T03:12:35;99359.72;;;15.85;100.00
12203;BME280;6164;42.178;24.622;2023-05-21T03:15:02;99363.63;;;15.82;100.00
12203;BME280;6164;42.178;24.622;2023-05-21T03:17:29;99374.88;;;15.91;100.00
12203;BME280;6164;42.178;24.622;2023-05-21T03:19:56;99362.78;;;15.89;100.00
12203;BME280;6164;42.178;24.622;2023-05-21T03:22:24;99373.19;;;15.97;100.00
12203;BME280;6164;42.178;24.622;2023-05-21T03:24:51;99374.25;;;15.89;100.00
12203;BME280;6164;42.178;24.622;2023-05-21T03:27:17;99371.19;;;15.86;100.00
12203;BME280;6164;42.178;24.622;2023-05-21T03:29:44;99344.16;;;15.82;100.00
12203;BME280;6164;42.178;24.622;2023-05-21T03:32:11;99364.63;;;15.95;100.00
12203;BME280;6164;42.178;24.622;2023-05-21T03:34:38;99363.81;;;15.94;100.00
12203;BME280;6164;42.178;24.622;2023-05-21T03:37:05;99359.88;;;15.97;100.00
12203;BME280;6164;42.178;24.622;2023-05-21T03:39:33;99355.81;;;15.94;100.00
12203;BME280;6164;42.178;24.622;2023-05-21T03:42:00;99374.69;;;15.79;100.00
12203;BME280;6164;42.178;24.622;2023-05-21T03:44:26;99400.88;;;15.89;100.00
12203;BME280;6164;42.178;24.622;2023-05-21T03:46:56;99396.16;;;15.91;100.00
12203;BME280;6164;42.178;24.622;2023-05-21T03:49:23;99362.34;;;15.98;100.00
12203;BME280;6164;42.178;24.622;2023-05-21T03:51:50;99365.59;;;16.07;100.00
12203;BME280;6164;42.178;24.622;2023-05-21T03:54:17;99353.13;;;16.07;100.00
12203;BME280;6164;42.178;24.622;2023-05-21T03:56:45;99366.03;;;15.97;100.00
12203;BME280;6164;42.178;24.622;2023-05-21T03:59:12;99361.34;;;15.93;100.00
12203;BME280;6164;42.178;24.622;2023-05-21T04:01:39;99367.28;;;15.95;100.00
12203;BME280;6164;42.178;24.622;2023-05-21T04:04:05;99363.59;;;15.89;100.00
12203;BME280;6164;42.178;24.622;2023-05-21T04:06:32;99359.28;;;15.88;100.00
12203;BME280;6164;42.178;24.622;2023-05-21T04:08:59;99375.69;;;15.85;100.00
12203;BME280;6164;42.178;24.622;2023-05-21T04:11:25;99361.13;;;16.01;100.00
12203;BME280;6164;42.178;24.622;2023-05-21T04:13:54;99364.19;;;16.11;100.00
12203;BME280;6164;42.178;24.622;2023-05-21T04:16:20;99359.06;;;16.09;100.00
12203;BME280;6164;42.178;24.622;2023-05-21T04:18:48;99361.91;;;16.14;100.00
12203;BME280;6164;42.178;24.622;2023-05-21T04:21:15;99360.66;;;16.17;100.00
12203;BME280;6164;42.178;24.622;2023-05-21T04:23:42;99359.41;;;16.32;100.00
12203;BME280;6164;42.178;24.622;2023-05-21T04:26:09;99365.09;;;16.42;100.00
12203;BME280;6164;42.178;24.622;2023-05-21T04:28:37;99363.03;;;16.51;100.00
12203;BME280;6164;42.178;24.622;2023-05-21T04:31:07;99360.34;;;16.51;100.00
12203;BME280;6164;42.178;24.622;2023-05-21T04:33:37;99351.75;;;16.55;100.00
12203;BME280;6164;42.178;24.622;2023-05-21T04:36:06;99353.78;;;16.60;100.00
12203;BME280;6164;42.178;24.622;2023-05-21T04:38:34;99347.41;;;16.61;100.00
12203;BME280;6164;42.178;24.622;2023-05-21T04:41:01;99327.38;;;16.52;100.00
12203;BME280;6164;42.178;24.622;2023-05-21T04:43:29;99347.16;;;16.69;100.00
12203;BME280;6164;42.178;24.622;2023-05-21T04:45:56;99353.88;;;16.78;100.00
12203;BME280;6164;42.178;24.622;2023-05-21T04:48:24;99354.13;;;16.70;100.00
12203;BME280;6164;42.178;24.622;2023-05-21T04:50:53;99348.16;;;16.74;100.00
12203;BME280;6164;42.178;24.622;2023-05-21T04:53:21;99351.22;;;16.78;100.00
12203;BME280;6164;42.178;24.622;2023-05-21T04:55:50;99357.94;;;16.80;100.00
12203;BME280;6164;42.178;24.622;2023-05-21T04:58:16;99365.16;;;16.80;100.00
12203;BME280;6164;42.178;24.622;2023-05-21T05:00:43;99362.44;;;16.86;100.00
12203;BME280;6164;42.178;24.622;2023-05-21T05:03:14;99369.41;;;16.87;100.00
12203;BME280;6164;42.178;24.622;2023-05-21T05:05:42;99362.38;;;16.99;100.00
12203;BME280;6164;42.178;24.622;2023-05-21T05:08:08;99371.31;;;17.12;100.00
12203;BME280;6164;42.178;24.622;2023-05-21T05:10:35;99360.41;;;17.20;100.00
12203;BME280;6164;42.178;24.622;2023-05-21T05:13:02;99365.50;;;17.21;100.00
12203;BME280;6164;42.178;24.622;2023-05-21T05:15:29;99362.09;;;17.07;100.00
12203;BME280;6164;42.178;24.622;2023-05-21T05:17:55;99362.09;;;17.07;100.00
12203;BME280;6164;42.178;24.622;2023-05-21T05:20:22;99364.91;;;17.19;100.00
12203;BME280;6164;42.178;24.622;2023-05-21T05:22:50;99366.13;;;17.17;100.00
12203;BME280;6164;42.178;24.622;2023-05-21T05:25:17;99370.59;;;16.98;100.00
12203;BME280;6164;42.178;24.622;2023-05-21T05:27:44;99369.88;;;17.09;100.00
12203;BME280;6164;42.178;24.622;2023-05-21T05:30:11;99379.69;;;17.15;100.00
12203;BME280;6164;42.178;24.622;2023-05-21T05:32:37;99375.63;;;17.13;100.00
12203;BME280;6164;42.178;24.622;2023-05-21T05:35:05;99379.28;;;17.18;100.00
12203;BME280;6164;42.178;24.622;2023-05-21T05:37:32;99380.88;;;17.26;100.00
12203;BME280;6164;42.178;24.622;2023-05-21T05:40:00;99381.13;;;17.18;100.00
12203;BME280;6164;42.178;24.622;2023-05-21T05:42:28;99379.88;;;17.20;100.00
12203;BME280;6164;42.178;24.622;2023-05-21T05:44:55;99386.03;;;17.21;100.00
12203;BME280;6164;42.178;24.622;2023-05-21T05:47:22;99387.47;;;17.23;100.00
12203;BME280;6164;42.178;24.622;2023-05-21T05:49:48;99402.97;;;17.33;100.00
12203;BME280;6164;42.178;24.622;2023-05-21T05:52:15;99400.09;;;17.34;100.00
12203;BME280;6164;42.178;24.622;2023-05-21T05:54:42;99412.56;;;17.40;100.00
12203;BME280;6164;42.178;24.622;2023-05-21T05:57:10;99408.22;;;17.52;100.00
12203;BME280;6164;42.178;24.622;2023-05-21T05:59:37;99408.97;;;17.59;100.00
12203;BME280;6164;42.178;24.622;2023-05-21T06:02:03;99395.25;;;17.56;100.00
12203;BME280;6164;42.178;24.622;2023-05-21T06:04:30;99399.19;;;17.47;100.00
12203;BME280;6164;42.178;24.622;2023-05-21T06:06:57;99404.72;;;17.52;100.00
12203;BME280;6164;42.178;24.622;2023-05-21T06:09:25;99407.72;;;17.62;100.00
12203;BME280;6164;42.178;24.622;2023-05-21T06:11:52;99406.38;;;17.77;100.00
12203;BME280;6164;42.178;24.622;2023-05-21T06:14:20;99408.09;;;17.90;100.00
12203;BME280;6164;42.178;24.622;2023-05-21T06:16:47;99395.72;;;17.95;100.00
12203;BME280;6164;42.178;24.622;2023-05-21T06:19:13;99390.25;;;18.08;100.00
12203;BME280;6164;42.178;24.622;2023-05-21T06:21:40;99399.13;;;18.20;100.00
12203;BME280;6164;42.178;24.622;2023-05-21T06:24:07;99382.84;;;18.28;100.00
12203;BME280;6164;42.178;24.622;2023-05-21T06:26:34;99383.84;;;18.27;100.00
12203;BME280;6164;42.178;24.622;2023-05-21T06:29:00;99379.63;;;18.38;100.00
12203;BME280;6164;42.178;24.622;2023-05-21T06:31:29;99393.47;;;18.53;100.00
12203;BME280;6164;42.178;24.622;2023-05-21T06:33:57;99389.81;;;18.66;100.00
12203;BME280;6164;42.178;24.622;2023-05-21T06:36:24;99378.88;;;18.67;100.00
12203;BME280;6164;42.178;24.622;2023-05-21T06:38:54;99378.75;;;18.62;100.00
12203;BME280;6164;42.178;24.622;2023-05-21T06:41:21;99369.25;;;18.66;100.00
12203;BME280;6164;42.178;24.622;2023-05-21T06:43:48;99361.69;;;18.75;100.00
12203;BME280;6164;42.178;24.622;2023-05-21T06:46:15;99360.97;;;18.86;100.00
12203;BME280;6164;42.178;24.622;2023-05-21T06:48:43;99363.69;;;18.97;100.00
12203;BME280;6164;42.178;24.622;2023-05-21T06:51:10;99358.25;;;18.74;100.00
12203;BME280;6164;42.178;24.622;2023-05-21T06:53:37;99331.03;;;18.77;100.00
12203;BME280;6164;42.178;24.622;2023-05-21T06:56:04;99353.09;;;19.02;100.00
12203;BME280;6164;42.178;24.622;2023-05-21T06:58:31;99363.75;;;19.20;100.00
12203;BME280;6164;42.178;24.622;2023-05-21T07:00:58;99367.75;;;19.29;100.00
12203;BME280;6164;42.178;24.622;2023-05-21T07:03:25;99362.16;;;19.31;100.00
12203;BME280;6164;42.178;24.622;2023-05-21T07:05:53;99365.09;;;19.41;100.00
12203;BME280;6164;42.178;24.622;2023-05-21T07:08:20;99364.84;;;19.42;100.00
12203;BME280;6164;42.178;24.622;2023-05-21T07:10:47;99376.50;;;19.48;100.00
12203;BME280;6164;42.178;24.622;2023-05-21T07:13:14;99377.81;;;19.57;100.00
12203;BME280;6164;42.178;24.622;2023-05-21T07:15:41;99373.50;;;19.67;100.00
12203;BME280;6164;42.178;24.622;2023-05-21T07:18:07;99362.44;;;19.76;100.00
12203;BME280;6164;42.178;24.622;2023-05-21T07:20:34;99365.72;;;19.89;100.00
12203;BME280;6164;42.178;24.622;2023-05-21T07:23:02;99361.84;;;19.97;100.00
12203;BME280;6164;42.178;24.622;2023-05-21T07:25:29;99360.69;;;19.93;100.00
12203;BME280;6164;42.178;24.622;2023-05-21T07:27:56;99362.31;;;19.94;100.00
12203;BME280;6164;42.178;24.622;2023-05-21T07:30:23;99360.34;;;20.01;100.00
12203;BME280;6164;42.178;24.622;2023-05-21T07:32:50;99354.88;;;19.96;100.00
12203;BME280;6164;42.178;24.622;2023-05-21T07:35:17;99356.72;;;20.07;100.00
12203;BME280;6164;42.178;24.622;2023-05-21T07:37:43;99358.38;;;20.19;100.00
12203;BME280;6164;42.178;24.622;2023-05-21T07:40:12;99342.31;;;20.19;100.00
12203;BME280;6164;42.178;24.622;2023-05-21T07:42:39;99353.78;;;20.31;100.00
12203;BME280;6164;42.178;24.622;2023-05-21T07:45:07;99356.47;;;20.31;100.00
12203;BME280;6164;42.178;24.622;2023-05-21T07:47:33;99349.81;;;20.45;100.00
12203;BME280;6164;42.178;24.622;2023-05-21T07:50:00;99358.41;;;20.59;100.00
12203;BME280;6164;42.178;24.622;2023-05-21T07:52:27;99358.59;;;20.69;100.00
12203;BME280;6164;42.178;24.622;2023-05-21T07:54:54;99374.97;;;20.84;100.00
12203;BME280;6164;42.178;24.622;2023-05-21T07:57:22;99364.09;;;20.90;100.00
12203;BME280;6164;42.178;24.622;2023-05-21T07:59:48;99358.78;;;21.07;100.00
12203;BME280;6164;42.178;24.622;2023-05-21T08:02:15;99348.16;;;21.12;100.00
12203;BME280;6164;42.178;24.622;2023-05-21T08:04:42;99359.06;;;21.22;100.00
12203;BME280;6164;42.178;24.622;2023-05-21T08:07:08;99355.59;;;21.38;100.00
12203;BME280;6164;42.178;24.622;2023-05-21T08:09:35;99359.00;;;21.50;96.23
12203;BME280;6164;42.178;24.622;2023-05-21T08:12:02;99364.03;;;21.63;98.65
12203;BME280;6164;42.178;24.622;2023-05-21T08:14:30;99356.50;;;21.77;97.02
12203;BME280;6164;42.178;24.622;2023-05-21T08:16:57;99350.19;;;21.71;93.49
12203;BME280;6164;42.178;24.622;2023-05-21T08:19:24;99354.16;;;21.80;93.36
12203;BME280;6164;42.178;24.622;2023-05-21T08:21:50;99368.47;;;21.86;91.36
12203;BME280;6164;42.178;24.622;2023-05-21T08:24:17;99364.28;;;21.95;92.97
12203;BME280;6164;42.178;24.622;2023-05-21T08:26:44;99363.13;;;22.07;91.08
12203;BME280;6164;42.178;24.622;2023-05-21T08:29:11;99346.66;;;22.21;88.98
12203;BME280;6164;42.178;24.622;2023-05-21T08:31:39;99362.97;;;22.36;88.33
12203;BME280;6164;42.178;24.622;2023-05-21T08:34:06;99373.44;;;22.54;90.01
12203;BME280;6164;42.178;24.622;2023-05-21T08:36:33;99369.06;;;22.69;84.88
12203;BME280;6164;42.178;24.622;2023-05-21T08:39:00;99372.44;;;22.81;78.46
12203;BME280;6164;42.178;24.622;2023-05-21T08:41:29;99375.09;;;23.03;75.32
12203;BME280;6164;42.178;24.622;2023-05-21T08:44:00;99376.22;;;23.07;74.58
12203;BME280;6164;42.178;24.622;2023-05-21T08:46:28;99367.06;;;23.34;75.95
12203;BME280;6164;42.178;24.622;2023-05-21T08:49:01;99373.47;;;23.55;75.25
12203;BME280;6164;42.178;24.622;2023-05-21T08:51:28;99378.72;;;23.72;70.63
12203;BME280;6164;42.178;24.622;2023-05-21T08:53:56;99387.94;;;23.81;67.88
12203;BME280;6164;42.178;24.622;2023-05-21T08:56:25;99389.34;;;23.88;66.19
12203;BME280;6164;42.178;24.622;2023-05-21T08:58:52;99382.78;;;23.79;63.14
12203;BME280;6164;42.178;24.622;2023-05-21T09:01:20;99404.19;;;23.91;62.26
12203;BME280;6164;42.178;24.622;2023-05-21T09:03:48;99395.06;;;23.97;62.55
12203;BME280;6164;42.178;24.622;2023-05-21T09:06:17;99400.13;;;23.88;61.56
12203;BME280;6164;42.178;24.622;2023-05-21T09:08:48;99384.22;;;23.87;62.81
12203;BME280;6164;42.178;24.622;2023-05-21T09:11:19;99388.66;;;23.71;60.41
12203;BME280;6164;42.178;24.622;2023-05-21T09:13:46;99359.75;;;23.62;63.10
12203;BME280;6164;42.178;24.622;2023-05-21T09:16:14;99385.38;;;23.64;61.08
12203;BME280;6164;42.178;24.622;2023-05-21T09:18:40;99351.16;;;23.65;62.33
12203;BME280;6164;42.178;24.622;2023-05-21T09:21:24;99369.28;;;23.74;63.07
12203;BME280;6164;42.178;24.622;2023-05-21T09:23:53;99362.88;;;23.80;64.54
12203;BME280;6164;42.178;24.622;2023-05-21T09:26:20;99372.28;;;23.78;62.52
12203;BME280;6164;42.178;24.622;2023-05-21T09:28:47;99398.63;;;23.71;59.66
12203;BME280;6164;42.178;24.622;2023-05-21T09:31:14;99387.09;;;23.75;61.94
12203;BME280;6164;42.178;24.622;2023-05-21T09:33:45;99385.59;;;23.58;60.85
12203;BME280;6164;42.178;24.622;2023-05-21T09:36:12;99383.41;;;23.55;61.80
12203;BME280;6164;42.178;24.622;2023-05-21T09:38:40;99390.13;;;23.52;61.12
12203;BME280;6164;42.178;24.622;2023-05-21T09:41:07;99380.41;;;23.51;61.25
12203;BME280;6164;42.178;24.622;2023-05-21T09:43:35;99381.44;;;23.45;61.26
12203;BME280;6164;42.178;24.622;2023-05-21T09:46:02;99373.38;;;23.45;62.01
12203;BME280;6164;42.178;24.622;2023-05-21T09:48:33;99369.09;;;23.49;63.32
12203;BME280;6164;42.178;24.622;2023-05-21T09:51:08;99360.25;;;23.54;63.43
12203;BME280;6164;42.178;24.622;2023-05-21T09:53:35;99356.75;;;23.58;63.45
12203;BME280;6164;42.178;24.622;2023-05-21T09:56:04;99375.06;;;23.56;60.99
12203;BME280;6164;42.178;24.622;2023-05-21T09:58:31;99389.72;;;23.65;60.22
12203;BME280;6164;42.178;24.622;2023-05-21T10:00:59;99376.84;;;23.72;62.61
12203;BME280;6164;42.178;24.622;2023-05-21T10:03:26;99376.88;;;23.77;61.24
12203;BME280;6164;42.178;24.622;2023-05-21T10:05:54;99388.16;;;23.74;60.42
12203;BME280;6164;42.178;24.622;2023-05-21T10:08:26;99375.75;;;23.73;61.17
12203;BME280;6164;42.178;24.622;2023-05-21T10:10:56;99374.84;;;23.63;59.99
12203;BME280;6164;42.178;24.622;2023-05-21T10:13:25;99376.50;;;23.64;61.66
12203;BME280;6164;42.178;24.622;2023-05-21T10:15:54;99364.91;;;23.63;63.47
12203;BME280;6164;42.178;24.622;2023-05-21T10:18:24;99366.06;;;23.72;64.36
12203;BME280;6164;42.178;24.622;2023-05-21T10:20:51;99372.00;;;23.79;62.36
12203;BME280;6164;42.178;24.622;2023-05-21T10:23:19;99379.03;;;23.80;62.05
12203;BME280;6164;42.178;24.622;2023-05-21T10:25:46;99386.00;;;23.76;62.01
12203;BME280;6164;42.178;24.622;2023-05-21T10:28:16;99395.44;;;23.74;60.53
12203;BME280;6164;42.178;24.622;2023-05-21T10:30:45;99394.88;;;23.72;61.39
12203;BME280;6164;42.178;24.622;2023-05-21T10:33:14;99350.25;;;23.49;62.01
12203;BME280;6164;42.178;24.622;2023-05-21T10:35:41;99346.47;;;23.23;62.91
12203;BME280;6164;42.178;24.622;2023-05-21T10:38:10;99349.63;;;23.15;64.23
12203;BME280;6164;42.178;24.622;2023-05-21T10:40:39;99354.25;;;23.20;65.01
12203;BME280;6164;42.178;24.622;2023-05-21T10:43:20;99372.97;;;23.31;62.37
12203;BME280;6164;42.178;24.622;2023-05-21T10:46:17;99368.09;;;23.28;62.62
12203;BME280;6164;42.178;24.622;2023-05-21T10:48:59;99372.06;;;23.53;62.26
12203;BME280;6164;42.178;24.622;2023-05-21T10:51:38;99382.72;;;23.69;60.97
12203;BME280;6164;42.178;24.622;2023-05-21T10:54:50;99412.00;;;23.92;55.64
12203;BME280;6164;42.178;24.622;2023-05-21T10:57:36;99375.50;;;24.11;58.74
12203;BME280;6164;42.178;24.622;2023-05-21T11:00:07;99429.50;;;24.21;53.90
12203;BME280;6164;42.178;24.622;2023-05-21T11:02:36;99409.63;;;24.37;56.92
12203;BME280;6164;42.178;24.622;2023-05-21T11:05:03;99425.13;;;24.57;53.85
12203;BME280;6164;42.178;24.622;2023-05-21T11:07:49;99428.75;;;24.73;54.22
12203;BME280;6164;42.178;24.622;2023-05-21T11:10:34;99432.00;;;24.80;53.40
12203;BME280;6164;42.178;24.622;2023-05-21T11:13:10;99408.50;;;24.75;55.52
12203;BME280;6164;42.178;24.622;2023-05-21T11:16:05;99365.75;;;24.62;59.55
12203;BME280;6164;42.178;24.622;2023-05-21T11:18:58;99366.91;;;24.71;60.08
12203;BME280;6164;42.178;24.622;2023-05-21T11:21:28;99364.47;;;24.75;60.27
12203;BME280;6164;42.178;24.622;2023-05-21T11:23:58;99370.81;;;24.48;59.97
12203;BME280;6164;42.178;24.622;2023-05-21T11:26:27;99355.41;;;24.39;62.07
12203;BME280;6164;42.178;24.622;2023-05-21T11:29:05;99345.41;;;24.34;61.91
12203;BME280;6164;42.178;24.622;2023-05-21T11:31:33;99334.59;;;24.29;62.55
12203;BME280;6164;42.178;24.622;2023-05-21T11:34:14;99333.16;;;24.07;63.14
12203;BME280;6164;42.178;24.622;2023-05-21T11:36:45;99335.72;;;23.92;64.06
12203;BME280;6164;42.178;24.622;2023-05-21T11:39:13;99320.03;;;23.84;66.36
12203;BME280;6164;42.178;24.622;2023-05-21T11:41:52;99316.50;;;23.78;67.24
12203;BME280;6164;42.178;24.622;2023-05-21T11:44:20;99311.06;;;23.73;69.61
12203;BME280;6164;42.178;24.622;2023-05-21T11:47:04;99317.28;;;23.74;67.90
12203;BME280;6164;42.178;24.622;2023-05-21T11:49:32;99314.81;;;23.67;68.39
12203;BME280;6164;42.178;24.622;2023-05-21T11:51:59;99323.50;;;23.79;67.93
12203;BME280;6164;42.178;24.622;2023-05-21T11:54:27;99329.97;;;23.78;68.35
12203;BME280;6164;42.178;24.622;2023-05-21T11:57:01;99295.66;;;23.64;70.41
12203;BME280;6164;42.178;24.622;2023-05-21T11:59:31;99333.63;;;23.62;68.23
12203;BME280;6164;42.178;24.622;2023-05-21T12:01:58;99333.25;;;23.49;66.29
12203;BME280;6164;42.178;24.622;2023-05-21T12:04:28;99332.81;;;23.30;68.06
12203;BME280;6164;42.178;24.622;2023-05-21T12:06:56;99314.22;;;23.02;69.09
12203;BME280;6164;42.178;24.622;2023-05-21T12:09:23;99321.34;;;23.13;70.00
12203;BME280;6164;42.178;24.622;2023-05-21T12:11:50;99317.38;;;22.94;70.88
12203;BME280;6164;42.178;24.622;2023-05-21T12:14:17;99313.09;;;22.93;73.76
12203;BME280;6164;42.178;24.622;2023-05-21T12:16:44;99316.81;;;22.92;73.20
12203;BME280;6164;42.178;24.622;2023-05-21T12:19:10;99300.50;;;22.77;73.30
12203;BME280;6164;42.178;24.622;2023-05-21T12:21:37;99314.53;;;22.79;72.59
12203;BME280;6164;42.178;24.622;2023-05-21T12:24:06;99322.56;;;22.74;73.00
12203;BME280;6164;42.178;24.622;2023-05-21T12:26:32;99312.00;;;22.67;75.19
12203;BME280;6164;42.178;24.622;2023-05-21T12:29:00;99314.31;;;22.59;75.80
12203;BME280;6164;42.178;24.622;2023-05-21T12:31:29;99318.34;;;22.56;75.24
12203;BME280;6164;42.178;24.622;2023-05-21T12:33:57;99311.44;;;22.44;75.51
12203;BME280;6164;42.178;24.622;2023-05-21T12:36:26;99310.81;;;22.37;76.61
12203;BME280;6164;42.178;24.622;2023-05-21T12:38:53;99300.56;;;22.34;79.23
12203;BME280;6164;42.178;24.622;2023-05-21T12:41:21;99311.19;;;22.24;79.43
12203;BME280;6164;42.178;24.622;2023-05-21T12:43:49;99300.13;;;22.20;81.01
12203;BME280;6164;42.178;24.622;2023-05-21T12:46:16;99303.13;;;22.24;81.20
12203;BME280;6164;42.178;24.622;2023-05-21T12:48:52;99293.91;;;22.19;83.31
12203;BME280;6164;42.178;24.622;2023-05-21T12:51:19;99299.81;;;22.16;82.62
12203;BME280;6164;42.178;24.622;2023-05-21T12:53:46;99303.06;;;22.18;81.98
12203;BME280;6164;42.178;24.622;2023-05-21T12:56:14;99300.88;;;22.15;82.79
12203;BME280;6164;42.178;24.622;2023-05-21T12:58:49;99295.97;;;22.12;82.33